createdAt,value
2022-12-04T00:04:29.297Z,3.15
2022-12-04T00:09:30.921Z,3.13
2022-12-04T00:14:32.635Z,3.17
2022-12-04T00:19:34.097Z,3.23
2022-12-04T00:24:35.641Z,3.27
2022-12-04T00:29:37.090Z,3.25
2022-12-04T00:34:38.577Z,3.26
2022-12-04T00:39:39.975Z,3.22
2022-12-04T00:44:41.483Z,3.20
2022-12-04T00:49:42.943Z,3.20
2022-12-04T00:54:44.427Z,3.24
2022-12-04T00:59:45.867Z,3.28
2022-12-04T01:04:47.617Z,3.29
2022-12-04T01:09:49.112Z,3.32
2022-12-04T01:14:50.543Z,3.25
2022-12-04T01:19:52.250Z,3.23
2022-12-04T01:24:56.930Z,3.25
2022-12-04T01:29:58.494Z,3.33
2022-12-04T01:34:59.913Z,3.26
2022-12-04T01:40:01.563Z,3.23
2022-12-04T01:45:24.808Z,3.36
2022-12-04T01:50:26.400Z,3.38
2022-12-04T01:55:28.008Z,3.34
2022-12-04T02:00:29.574Z,3.30
2022-12-04T02:05:31.030Z,3.33
2022-12-04T02:10:41.218Z,3.30
2022-12-04T02:15:55.506Z,3.30
2022-12-04T02:20:56.956Z,3.33
2022-12-04T02:26:36.178Z,3.33
2022-12-04T02:32:01.429Z,3.38
2022-12-04T02:37:14.401Z,3.40
2022-12-04T02:42:19.968Z,3.38
2022-12-04T02:47:24.119Z,3.41
2022-12-04T02:52:36.285Z,3.46
2022-12-04T02:57:44.104Z,3.47
2022-12-04T03:02:54.620Z,3.42
2022-12-04T03:07:58.795Z,3.42
2022-12-04T03:13:09.003Z,3.45
2022-12-04T03:18:18.589Z,3.48
2022-12-04T03:23:30.183Z,3.45
2022-12-04T03:28:43.842Z,3.45
2022-12-04T03:33:47.713Z,3.43
2022-12-04T03:39:05.748Z,3.41
2022-12-04T03:44:39.545Z,3.39
2022-12-04T03:49:46.898Z,3.36
2022-12-04T03:55:01.983Z,3.37
2022-12-04T04:00:08.528Z,3.35
2022-12-04T04:05:12.847Z,3.33
2022-12-04T04:10:17.549Z,3.29
2022-12-04T04:15:38.816Z,3.33
2022-12-04T04:21:03.275Z,3.39
2022-12-04T04:26:07.262Z,3.38
2022-12-04T04:31:16.619Z,3.37
2022-12-04T04:36:31.453Z,3.38
2022-12-04T04:41:43.825Z,3.40
2022-12-04T04:46:52.570Z,3.36
2022-12-04T04:51:55.077Z,3.39
2022-12-04T04:56:56.692Z,3.43
2022-12-04T05:01:58.491Z,3.40
2022-12-04T05:06:59.966Z,3.42
2022-12-04T05:12:01.372Z,3.45
2022-12-04T05:17:12.136Z,3.44
2022-12-04T05:22:14.146Z,3.51
2022-12-04T05:27:15.631Z,3.54
2022-12-04T05:32:17.096Z,3.60
2022-12-04T05:37:19.109Z,3.60
2022-12-04T05:42:20.695Z,3.55
2022-12-04T05:47:22.123Z,3.58
2022-12-04T05:52:23.629Z,3.54
2022-12-04T05:57:25.675Z,3.56
2022-12-04T06:02:27.379Z,3.59
2022-12-04T06:07:28.914Z,3.63
2022-12-04T06:12:30.714Z,3.66
2022-12-04T06:17:32.164Z,3.61
2022-12-04T06:22:33.952Z,3.64
2022-12-04T06:27:35.625Z,3.68
2022-12-04T06:32:37.085Z,3.69
2022-12-04T06:37:38.560Z,3.70
2022-12-04T06:42:40.077Z,3.69
2022-12-04T06:47:41.660Z,3.66
2022-12-04T06:52:43.090Z,3.62
2022-12-04T06:57:44.521Z,3.55
2022-12-04T07:02:46.050Z,3.64
2022-12-04T07:07:47.546Z,3.72
2022-12-04T07:12:49.049Z,3.78
2022-12-04T07:17:50.520Z,3.83
2022-12-04T07:22:52.160Z,3.79
2022-12-04T07:27:53.623Z,3.78
2022-12-04T07:32:55.112Z,3.74
2022-12-04T07:37:56.598Z,3.78
2022-12-04T07:42:58.093Z,3.82
2022-12-04T07:47:59.569Z,3.84
2022-12-04T07:53:01.014Z,3.87
2022-12-04T07:58:02.518Z,3.87
2022-12-04T08:03:04.424Z,3.92
2022-12-04T08:08:06.167Z,3.96
2022-12-04T08:13:07.704Z,3.93
2022-12-04T08:18:09.202Z,3.99
2022-12-04T08:23:10.887Z,4.02
2022-12-04T08:28:12.457Z,3.99
2022-12-04T08:33:13.922Z,3.99
2022-12-04T08:38:15.495Z,4.03
2022-12-04T08:43:17.086Z,4.07
2022-12-04T08:48:18.580Z,4.07
2022-12-04T08:53:20.674Z,4.04
2022-12-04T08:58:22.601Z,3.99
2022-12-04T09:03:30.588Z,4.00
2022-12-04T09:08:33.595Z,4.08
2022-12-04T09:13:35.958Z,4.11
2022-12-04T09:18:38.524Z,4.09
2022-12-04T09:23:40.889Z,4.09
2022-12-04T09:28:42.457Z,4.13
2022-12-04T09:33:46.027Z,4.17
2022-12-04T09:38:50.382Z,4.17
2022-12-04T09:43:57.973Z,4.18
2022-12-04T09:49:04.091Z,4.16
2022-12-04T09:54:14.000Z,4.18
2022-12-04T09:59:22.317Z,4.29
2022-12-04T10:04:25.674Z,4.32
2022-12-04T10:09:45.443Z,4.27
2022-12-04T10:15:06.745Z,4.29
2022-12-04T10:20:08.247Z,4.48
2022-12-04T10:25:24.358Z,4.48
2022-12-04T10:30:32.439Z,4.47
2022-12-04T10:35:36.190Z,4.41
2022-12-04T10:40:44.237Z,4.43
2022-12-04T10:45:45.700Z,4.42
2022-12-04T10:50:47.221Z,4.44
2022-12-04T10:55:49.002Z,4.52
2022-12-04T11:01:02.895Z,4.58
2022-12-04T11:06:06.786Z,4.68
2022-12-04T11:11:12.535Z,4.73
2022-12-04T11:16:35.705Z,4.67
2022-12-04T11:21:38.607Z,4.63
2022-12-04T11:26:42.728Z,4.56
2022-12-04T11:31:49.649Z,4.58
2022-12-04T11:36:56.492Z,4.66
2022-12-04T11:42:16.577Z,4.72
2022-12-04T11:47:20.139Z,4.71
2022-12-04T11:52:49.648Z,4.72
2022-12-04T11:57:54.165Z,4.70
2022-12-04T12:03:15.237Z,4.56
2022-12-04T12:09:12.154Z,4.50
2022-12-04T12:14:28.384Z,4.62
2022-12-04T12:19:55.483Z,4.83
2022-12-04T12:25:12.037Z,4.97
2022-12-04T12:30:22.454Z,5.04
2022-12-04T12:35:26.875Z,5.09
2022-12-04T12:40:43.650Z,5.10
2022-12-04T12:45:56.960Z,5.10
2022-12-04T12:51:31.728Z,5.03
2022-12-04T12:56:47.798Z,5.00
2022-12-04T13:02:01.059Z,5.03
2022-12-04T13:07:17.752Z,5.00
2022-12-04T13:12:22.027Z,4.98
2022-12-04T13:17:33.922Z,5.00
2022-12-04T13:22:51.913Z,4.99
2022-12-04T13:27:56.460Z,5.11
2022-12-04T13:32:57.876Z,5.22
2022-12-04T13:38:05.638Z,5.34
2022-12-04T13:43:37.092Z,5.30
2022-12-04T13:48:41.244Z,5.20
2022-12-04T13:53:43.887Z,5.06
2022-12-04T13:58:45.312Z,4.95
2022-12-04T14:03:50.628Z,4.93
2022-12-04T14:09:05.270Z,4.90
2022-12-04T14:14:08.346Z,4.88
2022-12-04T14:19:27.422Z,4.77
2022-12-04T14:24:35.650Z,4.81
2022-12-04T14:29:51.094Z,4.86
2022-12-04T14:34:53.452Z,4.84
2022-12-04T14:39:56.938Z,4.96
2022-12-04T14:45:00.722Z,5.08
2022-12-04T14:50:20.808Z,5.10
2022-12-04T14:55:57.752Z,5.11
2022-12-04T15:01:02.180Z,5.18
2022-12-04T15:06:12.016Z,5.23
2022-12-04T15:11:39.916Z,5.21
2022-12-04T15:16:41.655Z,5.16
2022-12-04T15:21:43.310Z,5.12
2022-12-04T15:26:46.738Z,5.07
2022-12-04T15:31:56.738Z,5.05
2022-12-04T15:37:07.367Z,5.05
2022-12-04T15:42:24.131Z,5.00
2022-12-04T15:47:26.361Z,4.94
2022-12-04T15:52:27.804Z,4.76
2022-12-04T15:57:33.577Z,4.43
2022-12-04T16:02:39.953Z,4.20
2022-12-04T16:07:58.674Z,4.11
2022-12-04T16:13:02.766Z,4.08
2022-12-04T16:18:06.150Z,4.15
2022-12-04T16:23:07.573Z,4.24
2022-12-04T16:28:09.068Z,4.28
2022-12-04T16:33:14.827Z,4.26
2022-12-04T16:38:17.233Z,4.26
2022-12-04T16:43:18.757Z,4.36
2022-12-04T16:48:20.823Z,4.35
2022-12-04T16:53:22.772Z,4.36
2022-12-04T16:58:24.288Z,4.37
2022-12-04T17:03:29.310Z,4.42
2022-12-04T17:08:32.021Z,4.48
2022-12-04T17:13:33.455Z,4.59
2022-12-04T17:18:35.210Z,4.66
2022-12-04T17:23:37.494Z,4.62
2022-12-04T17:28:39.038Z,4.63
2022-12-04T17:33:40.562Z,4.62
2022-12-04T17:38:42.314Z,4.64
2022-12-04T17:43:44.272Z,4.70
2022-12-04T17:48:45.959Z,4.74
2022-12-04T17:53:48.478Z,4.73
2022-12-04T17:58:51.532Z,4.69
2022-12-04T18:03:58.308Z,4.70
2022-12-04T18:09:00.208Z,4.70
2022-12-04T18:14:11.484Z,4.51
2022-12-04T18:19:14.736Z,4.34
2022-12-04T18:24:17.393Z,4.22
2022-12-04T18:29:22.271Z,4.32
2022-12-04T18:34:24.055Z,4.29
2022-12-04T18:39:26.197Z,4.24
2022-12-04T18:44:27.722Z,4.30
2022-12-04T18:49:29.263Z,4.36
2022-12-04T18:54:30.814Z,4.52
2022-12-04T18:59:33.085Z,4.71
2022-12-04T19:04:34.638Z,4.87
2022-12-04T19:10:09.468Z,4.92
2022-12-04T19:14:57.651Z,4.98
2022-12-04T19:19:59.405Z,5.01
2022-12-04T19:25:01.541Z,5.04
2022-12-04T19:30:04.366Z,5.07
2022-12-04T19:35:06.010Z,5.09
2022-12-04T19:40:08.171Z,5.09
2022-12-04T19:45:09.946Z,5.11
2022-12-04T19:50:11.701Z,5.16
2022-12-04T19:55:13.277Z,5.13
2022-12-04T20:00:14.991Z,5.17
2022-12-04T20:05:16.455Z,5.16
2022-12-04T20:10:18.013Z,5.13
2022-12-04T20:15:19.603Z,5.04
2022-12-04T20:20:21.092Z,4.99
2022-12-04T20:25:22.769Z,4.94
2022-12-04T20:30:24.249Z,4.86
2022-12-04T20:35:25.856Z,4.74
2022-12-04T20:40:27.398Z,4.67
2022-12-04T20:45:30.291Z,4.66
2022-12-04T20:50:32.238Z,4.72
2022-12-04T20:55:33.670Z,4.82
2022-12-04T21:00:35.175Z,4.90
2022-12-04T21:05:36.672Z,5.00
2022-12-04T21:10:38.243Z,5.09
2022-12-04T21:15:58.294Z,5.07
2022-12-04T21:21:01.431Z,5.08
2022-12-04T21:26:03.119Z,5.10
2022-12-04T21:31:06.282Z,5.10
2022-12-04T21:36:09.475Z,5.09
2022-12-04T21:41:31.567Z,5.11
2022-12-04T21:46:33.074Z,5.14
2022-12-04T21:52:01.090Z,5.18
2022-12-04T21:56:56.690Z,5.13
2022-12-04T22:01:58.490Z,5.03
2022-12-04T22:06:59.973Z,5.00
2022-12-04T22:12:04.200Z,5.05
2022-12-04T22:17:16.351Z,5.14
2022-12-04T22:22:17.906Z,5.24
2022-12-04T22:27:19.368Z,5.26
2022-12-04T22:32:21.138Z,5.26
2022-12-04T22:37:24.307Z,5.19
2022-12-04T22:42:25.897Z,5.19
2022-12-04T22:47:27.388Z,5.17
2022-12-04T22:52:32.927Z,5.18
2022-12-04T22:57:34.426Z,5.22
2022-12-04T23:02:36.035Z,5.24
2022-12-04T23:07:38.626Z,5.24
2022-12-04T23:12:40.163Z,5.15
2022-12-04T23:17:41.621Z,5.12
2022-12-04T23:22:43.076Z,5.05
2022-12-04T23:27:44.498Z,4.92
2022-12-04T23:32:45.894Z,4.86
2022-12-04T23:37:47.366Z,4.84
2022-12-04T23:42:48.811Z,4.87
2022-12-04T23:47:50.312Z,4.94
2022-12-04T23:52:51.748Z,4.99
2022-12-04T23:57:53.366Z,5.02
